createdAt,value
2024-04-18T00:00:40.324Z,8.52
2024-04-18T00:05:42.079Z,8.48
2024-04-18T00:10:44.728Z,8.44
2024-04-18T00:16:06.718Z,8.38
2024-04-18T00:21:08.461Z,8.34
2024-04-18T00:26:28.523Z,8.31
2024-04-18T00:31:39.321Z,8.32
2024-04-18T00:36:41.070Z,8.33
2024-04-18T00:41:57.848Z,8.34
2024-04-18T00:47:05.972Z,8.35
2024-04-18T00:52:12.338Z,8.36
2024-04-18T00:57:29.024Z,8.36
2024-04-18T01:02:31.406Z,8.37
2024-04-18T01:07:52.184Z,8.35
2024-04-18T01:13:01.357Z,8.35
2024-04-18T01:18:38.907Z,8.34
2024-04-18T01:23:50.144Z,8.34
2024-04-18T01:28:52.575Z,8.35
2024-04-18T01:34:07.020Z,8.35
2024-04-18T01:39:09.128Z,8.31
2024-04-18T01:44:11.869Z,8.31
2024-04-18T01:49:32.310Z,8.23
2024-04-18T01:54:34.898Z,8.19
2024-04-18T01:59:36.864Z,8.16
2024-04-18T02:04:38.962Z,8.11
2024-04-18T02:09:41.025Z,8.09
2024-04-18T02:15:00.910Z,8.06
2024-04-18T02:20:02.917Z,8.01
2024-04-18T02:25:16.820Z,8.00
2024-04-18T02:30:18.905Z,8.00
2024-04-18T02:35:20.823Z,7.97
2024-04-18T02:40:35.044Z,7.91
2024-04-18T02:45:37.100Z,7.89
2024-04-18T02:50:57.559Z,7.86
2024-04-18T02:55:59.605Z,7.87
2024-04-18T03:01:07.405Z,7.86
2024-04-18T03:06:13.925Z,7.81
2024-04-18T03:11:16.281Z,7.80
2024-04-18T03:16:38.297Z,7.79
2024-04-18T03:21:56.110Z,7.79
2024-04-18T03:26:58.266Z,7.80
2024-04-18T03:32:00.577Z,7.79
2024-04-18T03:37:21.961Z,7.79
2024-04-18T03:42:24.097Z,7.80
2024-04-18T03:47:28.753Z,7.80
2024-04-18T03:52:45.837Z,7.80
2024-04-18T03:58:06.230Z,7.76
2024-04-18T04:03:23.766Z,7.69
2024-04-18T04:08:25.876Z,7.66
2024-04-18T04:13:45.983Z,7.63
2024-04-18T04:18:56.732Z,7.61
2024-04-18T04:24:17.594Z,7.62
2024-04-18T04:29:25.549Z,7.62
2024-04-18T04:34:27.502Z,7.62
2024-04-18T04:39:29.582Z,7.61
2024-04-18T04:44:51.594Z,7.62
2024-04-18T04:50:06.383Z,7.65
2024-04-18T04:55:11.373Z,7.65
2024-04-18T05:00:14.090Z,7.67
2024-04-18T05:05:31.058Z,7.69
2024-04-18T05:10:46.734Z,7.74
2024-04-18T05:15:49.165Z,7.77
2024-04-18T05:21:06.813Z,7.80
2024-04-18T05:26:34.283Z,7.85
2024-04-18T05:31:38.319Z,7.87
2024-04-18T05:36:41.511Z,7.87
2024-04-18T05:41:43.188Z,7.82
2024-04-18T05:47:03.889Z,7.78
2024-04-18T05:52:06.922Z,7.73
2024-04-18T05:57:08.861Z,7.70
2024-04-18T06:02:25.789Z,7.66
2024-04-18T06:07:27.515Z,7.67
2024-04-18T06:12:29.216Z,7.70
2024-04-18T06:17:30.984Z,7.69
2024-04-18T06:22:32.899Z,7.68
2024-04-18T06:27:54.919Z,7.70
2024-04-18T06:32:56.988Z,7.71
2024-04-18T06:37:58.697Z,7.78
2024-04-18T06:43:00.532Z,7.82
2024-04-18T06:48:02.438Z,7.83
2024-04-18T06:53:04.712Z,7.81
2024-04-18T06:58:06.534Z,7.84
2024-04-18T07:03:08.939Z,7.81
2024-04-18T07:08:26.057Z,7.78
2024-04-18T07:13:33.265Z,7.87
2024-04-18T07:18:56.180Z,7.98
2024-04-18T07:24:01.162Z,8.06
2024-04-18T07:29:23.634Z,8.13
2024-04-18T07:34:25.523Z,8.17
2024-04-18T07:39:27.448Z,8.15
2024-04-18T07:44:29.150Z,8.17
2024-04-18T07:49:30.876Z,8.17
2024-04-18T07:54:32.559Z,8.19
2024-04-18T07:59:34.542Z,8.20
2024-04-18T08:04:52.702Z,8.19
2024-04-18T08:10:02.975Z,8.16
2024-04-18T08:15:11.943Z,8.19
2024-04-18T08:20:16.970Z,8.23
2024-04-18T08:25:18.668Z,8.27
2024-04-18T08:30:20.735Z,8.38
2024-04-18T08:35:22.418Z,8.59
2024-04-18T08:40:24.245Z,8.80
2024-04-18T08:45:27.128Z,8.80
2024-04-18T08:50:33.026Z,8.77
2024-04-18T08:55:36.607Z,8.78
2024-04-18T09:00:45.359Z,8.81
2024-04-18T09:05:47.160Z,8.71
2024-04-18T09:10:49.351Z,8.66
2024-04-18T09:15:51.012Z,8.62
2024-04-18T09:20:53.885Z,8.62
2024-04-18T09:25:55.618Z,8.72
2024-04-18T09:30:59.754Z,8.94
2024-04-18T09:36:02.740Z,9.16
2024-04-18T09:41:29.369Z,9.38
2024-04-18T09:46:35.682Z,9.57
2024-04-18T09:51:38.226Z,9.70
2024-04-18T09:56:40.047Z,9.86
2024-04-18T10:01:43.440Z,9.84
2024-04-18T10:06:47.496Z,9.68
2024-04-18T10:11:50.333Z,9.49
2024-04-18T10:16:52.127Z,9.24
2024-04-18T10:22:11.129Z,8.92
2024-04-18T10:27:22.146Z,8.72
2024-04-18T10:32:33.738Z,8.70
2024-04-18T10:37:36.592Z,8.78
2024-04-18T10:42:38.634Z,8.84
2024-04-18T10:47:41.142Z,8.92
2024-04-18T10:52:42.856Z,9.11
2024-04-18T10:57:44.560Z,9.35
2024-04-18T11:02:46.369Z,9.67
2024-04-18T11:07:57.234Z,9.95
2024-04-18T11:13:01.383Z,10.03
2024-04-18T11:18:06.672Z,10.08
2024-04-18T11:23:15.061Z,10.23
2024-04-18T11:28:18.695Z,10.55
2024-04-18T11:33:23.999Z,10.76
2024-04-18T11:38:26.026Z,10.79
2024-04-18T11:43:27.962Z,10.64
2024-04-18T11:48:29.783Z,10.50
2024-04-18T11:53:31.861Z,10.39
2024-04-18T11:58:33.561Z,10.27
2024-04-18T12:03:35.861Z,10.19
2024-04-18T12:08:37.592Z,10.14
2024-04-18T12:13:59.363Z,10.10
2024-04-18T12:19:01.104Z,10.13
2024-04-18T12:24:02.845Z,10.19
2024-04-18T12:29:09.680Z,10.34
2024-04-18T12:34:30.211Z,10.47
2024-04-18T12:39:37.931Z,10.52
2024-04-18T12:44:58.916Z,10.59
2024-04-18T12:50:00.736Z,10.66
2024-04-18T12:55:02.561Z,10.68
2024-04-18T13:00:06.034Z,10.72
2024-04-18T13:05:26.381Z,10.77
2024-04-18T13:10:38.642Z,10.95
2024-04-18T13:16:00.770Z,11.12
2024-04-18T13:21:04.507Z,11.16
2024-04-18T13:26:06.236Z,11.00
2024-04-18T13:31:12.691Z,10.63
2024-04-18T13:36:43.523Z,10.35
2024-04-18T13:41:46.583Z,10.28
2024-04-18T13:46:51.083Z,10.23
2024-04-18T13:52:11.387Z,10.19
2024-04-18T13:57:18.190Z,10.22
2024-04-18T14:02:20.695Z,10.24
2024-04-18T14:07:22.505Z,10.22
2024-04-18T14:12:24.264Z,10.12
2024-04-18T14:17:50.130Z,10.09
2024-04-18T14:22:51.980Z,10.06
2024-04-18T14:27:53.647Z,10.11
2024-04-18T14:33:11.085Z,10.26
2024-04-18T14:38:12.863Z,10.55
2024-04-18T14:43:14.894Z,10.83
2024-04-18T14:48:16.588Z,11.15
2024-04-18T14:53:19.547Z,11.48
2024-04-18T14:58:42.117Z,11.61
2024-04-18T15:03:56.261Z,11.43
2024-04-18T15:08:58.269Z,11.17
2024-04-18T15:13:59.932Z,11.04
2024-04-18T15:19:01.819Z,11.03
2024-04-18T15:24:23.940Z,11.00
2024-04-18T15:29:34.731Z,11.10
2024-04-18T15:34:55.256Z,11.18
2024-04-18T15:40:33.436Z,11.24
2024-04-18T15:45:40.936Z,11.19
2024-04-18T15:50:58.123Z,11.12
2024-04-18T15:56:05.657Z,11.02
2024-04-18T16:01:27.384Z,10.95
2024-04-18T16:06:47.493Z,10.87
2024-04-18T16:11:49.243Z,10.84
2024-04-18T16:17:06.200Z,10.83
2024-04-18T16:22:13.546Z,10.82
2024-04-18T16:27:24.032Z,10.76
2024-04-18T16:32:34.833Z,10.83
2024-04-18T16:37:40.570Z,10.94
2024-04-18T16:42:48.723Z,11.17
2024-04-18T16:47:51.854Z,11.43
2024-04-18T16:52:54.076Z,11.63
2024-04-18T16:58:15.685Z,11.68
2024-04-18T17:03:29.588Z,11.68
2024-04-18T17:08:32.142Z,11.42
2024-04-18T17:13:33.861Z,11.14
2024-04-18T17:18:45.232Z,10.93
2024-04-18T17:23:47.173Z,10.80
2024-04-18T17:28:48.852Z,10.63
2024-04-18T17:34:10.523Z,10.49
2024-04-18T17:39:18.082Z,10.33
2024-04-18T17:44:19.786Z,10.23
2024-04-18T17:49:28.225Z,10.08
2024-04-18T17:54:30.131Z,9.94
2024-04-18T17:59:31.838Z,9.87
2024-04-18T18:04:33.659Z,9.80
2024-04-18T18:09:36.954Z,9.74
2024-04-18T18:14:38.848Z,9.68
2024-04-18T18:19:40.730Z,9.65
2024-04-18T18:24:42.507Z,9.62
2024-04-18T18:29:44.278Z,9.57
2024-04-18T18:34:47.238Z,9.53
2024-04-18T18:39:49.623Z,9.42
2024-04-18T18:44:51.362Z,9.35
2024-04-18T18:49:53.079Z,9.28
2024-04-18T18:54:55.689Z,9.22
2024-04-18T18:59:57.701Z,9.16
2024-04-18T19:04:59.437Z,9.07
2024-04-18T19:10:01.222Z,9.03
2024-04-18T19:15:03.006Z,9.01
2024-04-18T19:20:05.079Z,8.97
2024-04-18T19:25:06.942Z,8.93
2024-04-18T19:30:09.162Z,8.89
2024-04-18T19:35:13.692Z,8.83
2024-04-18T19:40:16.484Z,8.79
2024-04-18T19:45:37.948Z,8.76
2024-04-18T19:50:40.474Z,8.71
2024-04-18T19:56:02.501Z,8.70
2024-04-18T20:01:06.797Z,8.70
2024-04-18T20:06:09.650Z,8.70
2024-04-18T20:11:27.191Z,8.69
2024-04-18T20:16:28.921Z,8.65
2024-04-18T20:21:45.931Z,8.60
2024-04-18T20:26:47.738Z,8.57
2024-04-18T20:31:49.427Z,8.57
2024-04-18T20:36:51.140Z,8.56
2024-04-18T20:41:54.336Z,8.55
2024-04-18T20:46:56.008Z,8.54
2024-04-18T20:51:57.673Z,8.55
2024-04-18T20:57:19.529Z,8.55
2024-04-18T21:02:21.894Z,8.52
2024-04-18T21:07:23.942Z,8.49
2024-04-18T21:12:27.824Z,8.41
2024-04-18T21:17:29.816Z,8.36
2024-04-18T21:22:31.700Z,8.33
2024-04-18T21:27:33.536Z,8.30
2024-04-18T21:32:35.427Z,8.28
2024-04-18T21:37:37.299Z,8.27
2024-04-18T21:42:39.248Z,8.25
2024-04-18T21:47:41.262Z,8.26
2024-04-18T21:52:43.073Z,8.23
2024-04-18T21:57:44.992Z,8.21
2024-04-18T22:02:47.031Z,8.15
2024-04-18T22:07:48.911Z,8.13
2024-04-18T22:12:50.821Z,8.12
2024-04-18T22:17:52.880Z,8.09
2024-04-18T22:22:54.740Z,8.08
2024-04-18T22:27:56.702Z,8.09
2024-04-18T22:32:58.653Z,8.07
2024-04-18T22:38:00.538Z,8.04
2024-04-18T22:43:02.649Z,8.02
2024-04-18T22:48:05.045Z,8.04
2024-04-18T22:53:06.926Z,8.07
2024-04-18T22:58:09.843Z,8.05
2024-04-18T23:03:11.716Z,8.03
2024-04-18T23:08:13.662Z,8.02
2024-04-18T23:13:15.691Z,8.01
2024-04-18T23:18:20.527Z,8.03
2024-04-18T23:23:22.483Z,8.04
2024-04-18T23:28:24.309Z,8.00
2024-04-18T23:33:26.266Z,8.02
2024-04-18T23:38:28.221Z,8.02
2024-04-18T23:43:30.066Z,8.03
2024-04-18T23:48:32.187Z,8.03
2024-04-18T23:53:34.116Z,8.02
2024-04-18T23:58:36.001Z,8.02
